Time;durP1;ratioP1;P1;durP2;ratioP2;P2;SDS_P1;SDS_P2;PMS_P1;PMS_P2;Temp;Humidity;BMP_temperature;BMP_pressure;BME280_temperature;BME280_humidity;BME280_pressure;Samples;Min_cycle;Max_cycle;Signal;HPM_P1;HPM_P2
2024/01/05 00:00:12;;;;;;;;;2.00;2.00;;;;;8.00;100.00;97757.88;6233005;27;98854;-61
2024/01/05 00:03:15;;;;;;;;;3.00;3.00;;;;;7.92;100.00;97755.53;6259733;27;98782;-62
2024/01/05 00:06:19;;;;;;;;;7.50;7.50;;;;;7.92;100.00;97753.66;6226347;27;96288;-62
2024/01/05 00:09:22;;;;;;;;;4.20;4.20;;;;;7.97;100.00;97751.09;6214413;28;97034;-62
2024/01/05 00:12:26;;;;;;;;;2.00;2.00;;;;;7.84;100.00;97745.97;6216085;28;98675;-61
2024/01/05 00:15:30;;;;;;;;;2.60;2.60;;;;;7.98;100.00;97768.00;6221499;28;96550;-61
2024/01/05 00:18:41;;;;;;;;;2.60;2.00;;;;;8.06;100.00;97781.13;6239519;28;96277;-61
2024/01/05 00:21:44;;;;;;;;;4.40;4.40;;;;;8.08;100.00;97789.72;6238053;28;96296;-61
2024/01/05 00:24:47;;;;;;;;;3.00;3.00;;;;;8.09;100.00;97778.78;6236397;27;97007;-61
2024/01/05 00:27:53;;;;;;;;;3.60;3.60;;;;;8.11;100.00;97792.75;6240396;27;96881;-61
2024/01/05 00:30:59;;;;;;;;;3.00;3.00;;;;;8.23;100.00;97788.22;6220482;28;96271;-61
2024/01/05 00:34:02;;;;;;;;;4.00;4.00;;;;;8.27;100.00;97804.69;6228754;28;97137;-61
2024/01/05 00:37:05;;;;;;;;;2.00;2.00;;;;;8.28;100.00;97806.31;6214740;28;96851;-61
2024/01/05 00:40:10;;;;;;;;;2.50;2.50;;;;;8.32;100.00;97810.19;6228430;28;98452;-61
2024/01/05 00:43:15;;;;;;;;;3.00;3.00;;;;;8.31;100.00;97800.50;6238588;27;96390;-62
2024/01/05 00:46:18;;;;;;;;;2.00;2.00;;;;;8.36;100.00;97815.91;6239469;28;96257;-62
2024/01/05 00:49:21;;;;;;;;;3.40;3.40;;;;;8.38;100.00;97830.75;6238312;28;96432;-62
2024/01/05 00:52:24;;;;;;;;;2.40;2.40;;;;;8.35;100.00;97820.50;6248963;27;97569;-62
2024/01/05 00:55:27;;;;;;;;;3.00;3.00;;;;;8.33;100.00;97821.75;6221350;28;98354;-61
2024/01/05 00:58:32;;;;;;;;;2.00;2.00;;;;;8.33;100.00;97822.59;6239436;28;97549;-61
2024/01/05 01:01:35;;;;;;;;;3.00;2.00;;;;;8.37;100.00;97817.56;6220764;28;96297;-62
2024/01/05 01:04:38;;;;;;;;;3.00;2.40;;;;;8.42;100.00;97821.19;6244020;27;96743;-61
2024/01/05 01:07:41;;;;;;;;;3.00;3.00;;;;;8.44;100.00;97827.16;6255080;27;96320;-62
2024/01/05 01:10:44;;;;;;;;;3.00;2.00;;;;;8.39;100.00;97821.66;6224010;27;98158;-62
2024/01/05 01:13:49;;;;;;;;;1.33;1.33;;;;;8.52;100.00;97834.03;6207076;28;96421;-62
2024/01/05 01:16:52;;;;;;;;;2.00;2.00;;;;;8.50;100.00;97839.63;6221196;28;98121;-62
2024/01/05 01:19:55;;;;;;;;;2.20;2.00;;;;;8.59;100.00;97840.09;6222207;27;96345;-61
2024/01/05 01:22:59;;;;;;;;;2.00;1.00;;;;;8.41;100.00;97832.16;6245342;27;96362;-61
2024/01/05 01:26:02;;;;;;;;;3.00;3.00;;;;;8.53;100.00;97849.91;6239281;27;96830;-62
2024/01/05 01:29:08;;;;;;;;;2.00;1.60;;;;;8.55;100.00;97852.38;6220379;28;96330;-64
2024/01/05 01:32:11;;;;;;;;;2.00;2.00;;;;;8.50;100.00;97849.56;6247955;28;96235;-64
2024/01/05 01:35:15;;;;;;;;;3.00;3.00;;;;;8.45;100.00;97847.59;6231092;28;98846;-65
2024/01/05 01:38:18;;;;;;;;;2.00;2.00;;;;;8.44;100.00;97850.50;6237586;28;97105;-65
2024/01/05 01:41:21;;;;;;;;;2.00;2.00;;;;;8.39;100.00;97858.44;6223688;28;96307;-65
2024/01/05 01:44:25;;;;;;;;;2.80;2.00;;;;;8.47;100.00;97850.84;6237320;28;96259;-64
2024/01/05 01:47:29;;;;;;;;;1.60;1.00;;;;;8.47;100.00;97860.75;6230001;27;96248;-65
2024/01/05 01:50:32;;;;;;;;;3.00;3.00;;;;;8.41;100.00;97862.50;6259438;27;96343;-64
2024/01/05 01:53:35;;;;;;;;;3.40;3.00;;;;;8.40;100.00;97878.88;6252142;27;96252;-65
2024/01/05 01:56:39;;;;;;;;;4.00;3.00;;;;;8.41;100.00;97878.63;6223077;28;96879;-65
2024/01/05 01:59:44;;;;;;;;;3.80;3.20;;;;;8.43;100.00;97884.59;6234932;27;96408;-66
2024/01/05 02:02:48;;;;;;;;;2.00;2.00;;;;;8.45;100.00;97877.13;6260446;22;97334;-64
2024/01/05 02:05:51;;;;;;;;;3.00;3.00;;;;;8.46;100.00;97902.09;6225771;28;96409;-65
2024/01/05 02:08:55;;;;;;;;;3.00;3.00;;;;;8.47;100.00;97898.38;6220644;28;96120;-66
2024/01/05 02:11:58;;;;;;;;;3.00;3.00;;;;;8.41;100.00;97900.09;6240995;28;96250;-65
2024/01/05 02:15:03;;;;;;;;;3.40;3.00;;;;;8.44;100.00;97914.97;6227815;28;96320;-62
2024/01/05 02:18:26;;;;;;;;;3.00;3.00;;;;;8.43;100.00;97922.19;6207468;28;96217;-63
2024/01/05 02:21:33;;;;;;;;;2.00;2.00;;;;;8.42;100.00;97906.31;6243193;28;96232;-64
2024/01/05 02:24:37;;;;;;;;;4.00;4.00;;;;;8.39;100.00;97929.09;6204423;28;96963;-63
2024/01/05 02:27:41;;;;;;;;;5.00;4.00;;;;;8.02;100.00;97860.44;6240729;27;96937;-64
2024/01/05 02:30:45;;;;;;;;;3.20;3.00;;;;;8.38;100.00;97911.31;6245051;28;96922;-64
2024/01/05 02:33:48;;;;;;;;;5.00;4.00;;;;;8.47;100.00;97912.63;6203832;28;96827;-63
2024/01/05 02:36:51;;;;;;;;;3.00;3.00;;;;;8.45;100.00;97906.69;6242335;28;96122;-63
2024/01/05 02:39:55;;;;;;;;;3.00;3.00;;;;;8.43;100.00;97908.75;6242550;28;96285;-61
2024/01/05 02:42:59;;;;;;;;;4.00;4.00;;;;;8.46;100.00;97910.97;6237558;28;96342;-61
2024/01/05 02:46:02;;;;;;;;;3.00;3.00;;;;;8.51;100.00;97904.91;6244694;27;96230;-61
2024/01/05 02:49:05;;;;;;;;;3.00;2.00;;;;;8.44;100.00;97906.91;6235881;27;98837;-61
2024/01/05 02:52:08;;;;;;;;;4.20;3.20;;;;;8.50;100.00;97912.13;6221101;27;96791;-62
2024/01/05 02:55:13;;;;;;;;;3.60;3.00;;;;;8.47;100.00;97912.63;6193633;28;96625;-62
2024/01/05 02:58:16;;;;;;;;;6.20;6.00;;;;;8.37;100.00;97904.31;6226830;28;96848;-62
2024/01/05 03:01:20;;;;;;;;;5.00;5.00;;;;;8.33;100.00;97907.69;6245439;27;96374;-62
2024/01/05 03:04:23;;;;;;;;;5.40;5.40;;;;;8.31;100.00;97905.22;6222645;28;96233;-62
2024/01/05 03:07:27;;;;;;;;;5.25;5.25;;;;;8.38;100.00;97924.75;6218375;28;96681;-62
2024/01/05 03:10:32;;;;;;;;;7.00;6.00;;;;;8.36;100.00;97929.53;6207933;28;96933;-62
2024/01/05 03:13:35;;;;;;;;;5.00;4.00;;;;;8.38;100.00;97927.44;6232277;28;96174;-62
2024/01/05 03:16:38;;;;;;;;;5.60;5.60;;;;;8.22;100.00;97936.94;6225778;28;96290;-62
2024/01/05 03:19:42;;;;;;;;;5.50;5.00;;;;;8.18;100.00;97949.19;6227544;28;96406;-62
2024/01/05 03:22:45;;;;;;;;;6.20;6.00;;;;;8.19;100.00;97926.66;6240875;28;96338;-62
2024/01/05 03:25:50;;;;;;;;;6.00;6.00;;;;;8.12;100.00;97941.22;6241855;27;96251;-62
2024/01/05 03:28:54;;;;;;;;;4.00;4.00;;;;;8.14;100.00;97939.13;6236846;28;96461;-62
2024/01/05 03:31:57;;;;;;;;;6.00;6.00;;;;;8.17;100.00;97923.38;6239435;28;96574;-62
2024/01/05 03:35:00;;;;;;;;;5.33;4.00;;;;;8.14;100.00;97931.09;6227547;28;97037;-62
2024/01/05 03:38:03;;;;;;;;;4.00;4.00;;;;;8.15;100.00;97944.28;6239982;28;96339;-61
2024/01/05 03:41:08;;;;;;;;;5.00;5.00;;;;;8.07;100.00;97944.59;6240671;28;96499;-62
2024/01/05 03:44:11;;;;;;;;;5.00;4.00;;;;;8.09;100.00;97947.88;6217957;28;98139;-62
2024/01/05 03:47:14;;;;;;;;;3.60;3.60;;;;;8.05;100.00;97949.38;6198161;28;96245;-61
2024/01/05 03:50:17;;;;;;;;;5.00;5.00;;;;;8.09;100.00;97950.56;6238814;28;96281;-57
2024/01/05 03:53:20;;;;;;;;;5.60;5.00;;;;;8.12;100.00;97962.69;6257010;27;96111;-58
2024/01/05 03:56:25;;;;;;;;;7.00;6.00;;;;;8.15;100.00;97964.94;6255546;27;96338;-58
2024/01/05 03:59:28;;;;;;;;;6.40;6.40;;;;;8.14;100.00;97961.44;6248807;28;96283;-58
2024/01/05 04:02:31;;;;;;;;;5.60;5.00;;;;;8.15;100.00;97960.41;6243172;28;96422;-57
2024/01/05 04:05:35;;;;;;;;;6.00;4.25;;;;;8.23;100.00;97957.38;6243884;28;97323;-57
2024/01/05 04:08:39;;;;;;;;;6.00;6.00;;;;;8.27;100.00;97953.19;6223211;28;96970;-58
2024/01/05 04:11:44;;;;;;;;;6.00;6.00;;;;;8.31;100.00;97950.88;6247668;28;96367;-58
2024/01/05 04:14:47;;;;;;;;;5.60;5.60;;;;;8.29;100.00;97961.00;6228547;28;97261;-57
2024/01/05 04:17:50;;;;;;;;;6.40;5.40;;;;;8.33;100.00;97958.72;6233198;28;96966;-57
2024/01/05 04:20:53;;;;;;;;;8.00;8.00;;;;;8.28;100.00;97954.81;6243717;27;99202;-59
2024/01/05 04:23:58;;;;;;;;;7.00;6.40;;;;;8.28;100.00;97949.44;6247792;27;96357;-58
2024/01/05 04:27:03;;;;;;;;;8.00;7.00;;;;;8.25;100.00;97954.47;6247939;27;97671;-57
2024/01/05 04:30:07;;;;;;;;;6.40;6.00;;;;;8.28;100.00;97945.94;6245046;28;96403;-61
2024/01/05 04:33:11;;;;;;;;;8.60;7.00;;;;;8.27;100.00;97949.69;6231156;28;96258;-58
2024/01/05 04:36:16;;;;;;;;;8.00;8.00;;;;;8.35;100.00;97945.88;6239800;28;96305;-57
2024/01/05 04:39:19;;;;;;;;;8.00;7.00;;;;;8.32;100.00;97955.22;6247242;28;96175;-58
2024/01/05 04:42:26;;;;;;;;;8.20;8.00;;;;;8.30;100.00;97946.56;6236802;28;96370;-58
2024/01/05 04:45:29;;;;;;;;;8.00;6.00;;;;;8.30;100.00;97945.75;6209742;28;96934;-58
2024/01/05 04:48:33;;;;;;;;;8.00;7.20;;;;;8.25;100.00;97975.94;6235465;27;96250;-58
2024/01/05 04:51:36;;;;;;;;;10.00;10.00;;;;;8.25;100.00;97971.41;6236406;27;96748;-58
2024/01/05 04:54:41;;;;;;;;;7.00;6.00;;;;;8.31;100.00;97979.63;6223557;28;96245;-57
2024/01/05 04:57:46;;;;;;;;;8.00;7.60;;;;;8.31;100.00;97969.69;6220027;28;96582;-57
2024/01/05 05:00:49;;;;;;;;;9.40;9.00;;;;;8.31;100.00;97975.03;6242715;27;96313;-58
2024/01/05 05:03:52;;;;;;;;;8.00;8.00;;;;;8.34;100.00;97974.59;6251558;27;96467;-58
2024/01/05 05:06:56;;;;;;;;;6.60;6.00;;;;;8.41;100.00;97985.22;6249196;27;96879;-58
2024/01/05 05:10:00;;;;;;;;;9.40;9.00;;;;;8.41;100.00;97982.53;6256606;27;96326;-57
2024/01/05 05:13:05;;;;;;;;;9.00;9.00;;;;;8.41;100.00;97978.00;6262109;27;97816;-57
2024/01/05 05:16:08;;;;;;;;;7.50;7.00;;;;;8.42;100.00;97984.19;6254655;27;96621;-57
2024/01/05 05:19:11;;;;;;;;;8.40;8.00;;;;;8.43;100.00;97983.16;6236267;27;96318;-57
2024/01/05 05:22:14;;;;;;;;;9.20;8.00;;;;;8.40;100.00;97997.03;6226546;28;96161;-58
2024/01/05 05:25:18;;;;;;;;;9.00;8.40;;;;;8.34;100.00;97996.09;6204566;28;99502;-57
2024/01/05 05:28:23;;;;;;;;;8.00;7.00;;;;;8.33;100.00;98018.63;6238380;27;96393;-58
2024/01/05 05:31:26;;;;;;;;;10.50;10.50;;;;;8.26;100.00;98012.47;6227821;27;96810;-58
2024/01/05 05:34:29;;;;;;;;;10.00;10.00;;;;;8.38;100.00;98013.38;6217601;28;97334;-57
2024/01/05 05:37:32;;;;;;;;;10.00;9.25;;;;;8.35;100.00;98011.16;6214313;28;96721;-56
2024/01/05 05:40:35;;;;;;;;;8.00;8.00;;;;;8.33;100.00;98026.66;6223203;28;96501;-57
2024/01/05 05:43:40;;;;;;;;;8.00;8.00;;;;;8.36;100.00;98036.94;6239578;28;96304;-57
2024/01/05 05:46:43;;;;;;;;;9.00;8.80;;;;;8.39;100.00;98035.69;6242930;27;96306;-57
2024/01/05 05:49:46;;;;;;;;;8.80;6.80;;;;;8.42;100.00;98048.66;6226948;28;98664;-57
2024/01/05 05:52:51;;;;;;;;;9.00;9.00;;;;;8.47;100.00;98056.84;6246050;28;96370;-57
2024/01/05 05:55:54;;;;;;;;;10.00;10.00;;;;;8.41;100.00;98058.56;6224600;27;97069;-57
2024/01/05 05:58:59;;;;;;;;;11.00;11.00;;;;;8.37;100.00;98070.00;6243448;28;96997;-58
2024/01/05 06:02:02;;;;;;;;;9.25;8.75;;;;;8.35;100.00;98070.25;6221589;28;96264;-57
2024/01/05 06:05:07;;;;;;;;;12.00;11.40;;;;;8.37;100.00;98078.06;6223385;28;96156;-57
2024/01/05 06:08:10;;;;;;;;;9.40;8.40;;;;;8.37;100.00;98081.56;6237752;28;96424;-58
2024/01/05 06:11:13;;;;;;;;;10.00;10.00;;;;;8.39;100.00;98074.09;6246646;28;97292;-57
2024/01/05 06:14:18;;;;;;;;;10.25;10.00;;;;;8.39;100.00;98071.41;6235560;28;96395;-58
2024/01/05 06:17:21;;;;;;;;;10.00;10.00;;;;;8.35;100.00;98074.78;6236670;28;96272;-57
2024/01/05 06:20:24;;;;;;;;;9.40;9.40;;;;;8.27;100.00;98075.88;6240633;27;96173;-58
2024/01/05 06:23:28;;;;;;;;;10.40;10.40;;;;;8.23;100.00;98082.75;6231915;28;96485;-57
2024/01/05 06:26:31;;;;;;;;;9.50;8.50;;;;;8.22;100.00;98078.41;6233125;28;96329;-57
2024/01/05 06:29:35;;;;;;;;;9.00;9.00;;;;;8.21;100.00;98074.09;6237726;28;96188;-58
2024/01/05 06:32:38;;;;;;;;;9.40;9.40;;;;;8.21;100.00;98063.34;6225797;28;96304;-58
2024/01/05 06:35:42;;;;;;;;;11.00;10.00;;;;;8.08;100.00;98047.41;6210696;28;96670;-59
2024/01/05 06:38:45;;;;;;;;;11.50;10.25;;;;;8.12;100.00;98056.66;6238060;28;96586;-58
2024/01/05 06:41:48;;;;;;;;;10.00;10.00;;;;;8.04;100.00;98062.34;6236070;28;96905;-58
2024/01/05 06:44:53;;;;;;;;;9.00;9.00;;;;;8.07;100.00;98060.03;6251173;27;96776;-57
2024/01/05 06:47:56;;;;;;;;;11.00;9.80;;;;;8.07;100.00;98064.56;6250022;27;96567;-57
2024/01/05 06:51:00;;;;;;;;;10.00;9.00;;;;;8.06;100.00;98057.59;6248461;28;98091;-56
2024/01/05 06:54:03;;;;;;;;;9.00;8.20;;;;;8.04;100.00;98060.47;6251301;28;96254;-57
2024/01/05 06:57:07;;;;;;;;;12.25;11.25;;;;;8.05;100.00;98058.63;6250560;28;96333;-58
2024/01/05 07:00:12;;;;;;;;;12.25;11.00;;;;;8.06;100.00;98054.91;6231018;28;96563;-59
2024/01/05 07:03:15;;;;;;;;;8.60;8.00;;;;;8.05;100.00;98053.25;6247446;27;96858;-57
2024/01/05 07:06:18;;;;;;;;;10.20;9.20;;;;;8.08;100.00;98047.41;6239946;27;96475;-58
2024/01/05 07:09:22;;;;;;;;;11.00;10.00;;;;;7.98;100.00;98041.75;6251557;27;98544;-59
2024/01/05 07:12:28;;;;;;;;;12.00;10.00;;;;;8.06;100.00;98044.16;6273601;27;97018;-59
2024/01/05 07:15:33;;;;;;;;;11.20;10.20;;;;;8.09;100.00;98043.69;6276131;27;96578;-57
2024/01/05 07:18:37;;;;;;;;;11.50;11.00;;;;;8.09;100.00;98041.00;6245614;28;96600;-57
2024/01/05 07:21:43;;;;;;;;;12.00;10.40;;;;;8.12;100.00;98043.22;6231559;27;96623;-57
2024/01/05 07:24:48;;;;;;;;;13.20;12.00;;;;;8.13;100.00;98043.00;6249635;28;96199;-57
2024/01/05 07:27:51;;;;;;;;;11.00;11.00;;;;;8.13;100.00;98040.34;6249524;28;96584;-59
2024/01/05 07:30:56;;;;;;;;;10.20;10.00;;;;;8.16;100.00;98044.44;6258692;27;96441;-58
2024/01/05 07:34:08;;;;;;;;;12.00;11.00;;;;;8.18;100.00;98045.03;6248541;28;96595;-57
2024/01/05 07:37:11;;;;;;;;;11.40;11.40;;;;;8.16;100.00;98053.28;6250035;28;96480;-57
2024/01/05 07:40:14;;;;;;;;;12.40;11.40;;;;;8.18;100.00;98061.13;6248991;28;96418;-57
2024/01/05 07:43:17;;;;;;;;;10.67;10.00;;;;;8.19;100.00;98055.53;6249598;28;96982;-58
2024/01/05 07:46:25;;;;;;;;;13.20;12.20;;;;;8.24;100.00;98060.22;6232173;28;98764;-59
2024/01/05 07:49:28;;;;;;;;;9.60;9.20;;;;;8.27;100.00;98057.91;6251025;28;96301;-57
2024/01/05 07:52:32;;;;;;;;;14.00;14.00;;;;;8.27;100.00;98044.47;6250738;27;96377;-57
2024/01/05 07:55:35;;;;;;;;;15.00;15.00;;;;;8.28;100.00;98039.94;6253572;27;96754;-57
2024/01/05 07:58:40;;;;;;;;;16.75;14.75;;;;;8.31;100.00;98036.00;6248793;28;98897;-57
2024/01/05 08:01:44;;;;;;;;;13.75;13.00;;;;;8.34;100.00;98031.00;6252522;27;96226;-57
2024/01/05 08:04:48;;;;;;;;;15.40;14.60;;;;;8.24;100.00;98018.09;6257220;27;96609;-57
2024/01/05 08:07:51;;;;;;;;;14.20;13.20;;;;;8.40;100.00;98050.75;6239665;27;98561;-57
2024/01/05 08:10:55;;;;;;;;;14.60;13.60;;;;;8.46;100.00;98053.34;6275175;27;96313;-57
2024/01/05 08:13:58;;;;;;;;;15.75;14.50;;;;;8.48;100.00;98047.75;6274514;27;96318;-57
2024/01/05 08:17:03;;;;;;;;;15.00;14.20;;;;;8.45;100.00;98049.03;6274175;27;96302;-57
2024/01/05 08:20:07;;;;;;;;;14.00;13.00;;;;;8.50;100.00;98042.97;6275064;27;96294;-57
2024/01/05 08:23:10;;;;;;;;;16.60;15.60;;;;;8.55;100.00;98049.28;6256215;27;98546;-57
2024/01/05 08:26:17;;;;;;;;;17.00;16.00;;;;;8.64;100.00;98047.09;6254912;27;96701;-57
2024/01/05 08:29:21;;;;;;;;;17.33;15.33;;;;;8.70;100.00;98052.34;6256270;27;97333;-57
2024/01/05 08:32:26;;;;;;;;;15.00;14.25;;;;;8.75;100.00;98048.19;6256414;27;98390;-58
2024/01/05 08:35:29;;;;;;;;;15.40;15.00;;;;;8.79;100.00;98049.34;6257191;27;99204;-57
2024/01/05 08:38:32;;;;;;;;;15.20;13.00;;;;;8.80;100.00;98056.34;6250871;27;98907;-58
2024/01/05 08:41:36;;;;;;;;;16.25;14.50;;;;;8.74;100.00;98063.47;6250848;27;96373;-57
2024/01/05 08:44:39;;;;;;;;;16.50;14.50;;;;;8.86;100.00;98064.31;6250857;27;96381;-57
2024/01/05 08:47:43;;;;;;;;;14.40;13.00;;;;;8.99;100.00;98071.38;6271621;27;96311;-56
2024/01/05 08:50:46;;;;;;;;;20.60;17.00;;;;;9.02;100.00;98065.50;6274090;27;96314;-57
2024/01/05 08:53:49;;;;;;;;;17.00;16.50;;;;;9.12;100.00;98079.22;6255376;27;96646;-57
2024/01/05 08:56:53;;;;;;;;;16.60;14.00;;;;;9.03;100.00;98084.13;6274780;27;96603;-57
2024/01/05 08:59:56;;;;;;;;;16.40;15.20;;;;;8.89;100.00;98076.50;6272559;27;96329;-57
2024/01/05 09:03:00;;;;;;;;;16.80;16.00;;;;;9.03;100.00;98081.44;6273933;27;96329;-57
2024/01/05 09:06:04;;;;;;;;;17.20;14.00;;;;;9.24;100.00;98069.28;6254080;27;96147;-59
2024/01/05 09:09:07;;;;;;;;;15.00;14.00;;;;;9.58;100.00;98076.53;6246159;27;96266;-57
2024/01/05 09:12:10;;;;;;;;;17.00;14.33;;;;;10.32;100.00;98066.81;6270942;27;96370;-57
2024/01/05 09:15:15;;;;;;;;;16.00;11.60;;;;;11.45;100.00;98067.66;6273956;27;96911;-58
2024/01/05 09:18:20;;;;;;;;;14.00;12.40;;;;;11.84;100.00;98073.94;6272294;27;96394;-58
2024/01/05 09:21:24;;;;;;;;;14.00;12.00;;;;;12.09;100.00;98077.78;6268475;27;96231;-57
2024/01/05 09:24:29;;;;;;;;;16.40;13.00;;;;;12.76;100.00;98068.53;6228085;28;96724;-58
2024/01/05 09:27:32;;;;;;;;;14.60;12.40;;;;;13.60;100.00;98056.00;6211318;28;96749;-58
2024/01/05 09:30:35;;;;;;;;;14.00;13.40;;;;;14.49;100.00;98064.03;6228442;28;96907;-58
2024/01/05 09:33:40;;;;;;;;;18.00;16.00;;;;;14.85;100.00;98059.53;6236633;27;98673;-58
2024/01/05 09:36:43;;;;;;;;;16.00;14.00;;;;;14.77;100.00;98059.22;6264716;27;96267;-58
2024/01/05 09:40:10;;;;;;;;;14.25;12.25;;;;;14.74;100.00;98061.41;6227471;28;96268;-61
2024/01/05 09:43:34;;;;;;;;;19.50;17.00;;;;;16.02;100.00;98061.09;6221552;28;96518;-60
2024/01/05 09:46:58;;;;;;;;;15.25;13.00;;;;;16.52;100.00;98063.88;6219252;28;96647;-61
2024/01/05 09:50:22;;;;;;;;;15.40;12.40;;;;;17.35;100.00;98055.72;6207558;28;96507;-61
2024/01/05 09:53:45;;;;;;;;;15.80;15.00;;;;;17.95;100.00;98057.88;6222159;28;96230;-62
2024/01/05 09:57:16;;;;;;;;;16.60;14.80;;;;;17.04;100.00;98055.97;6221886;28;96940;-62
2024/01/05 10:00:41;;;;;;;;;16.80;16.00;;;;;16.66;100.00;98059.47;6241463;27;96474;-61
2024/01/05 10:04:07;;;;;;;;;18.20;15.20;;;;;16.79;100.00;98061.56;6221172;28;96234;-61
2024/01/05 10:07:32;;;;;;;;;15.50;15.00;;;;;18.17;100.00;98062.84;6226432;28;96769;-61
2024/01/05 10:10:58;;;;;;;;;16.25;15.25;;;;;16.85;100.00;98071.34;6211230;28;96400;-61
2024/01/05 10:14:25;;;;;;;;;13.50;12.50;;;;;15.04;100.00;98066.06;6211560;28;96422;-62
2024/01/05 10:17:49;;;;;;;;;17.40;15.80;;;;;13.61;100.00;98063.06;6232222;28;96743;-61
2024/01/05 10:21:12;;;;;;;;;13.50;13.50;;;;;13.68;100.00;98065.53;6236574;28;96288;-60
2024/01/05 10:24:36;;;;;;;;;16.60;15.40;;;;;13.90;100.00;98058.06;6224239;28;96282;-61
2024/01/05 10:28:00;;;;;;;;;16.00;14.60;;;;;13.36;100.00;98057.47;6218817;28;96442;-61
2024/01/05 10:31:23;;;;;;;;;17.00;14.00;;;;;12.94;100.00;98058.19;6210974;28;99234;-61
2024/01/05 10:34:47;;;;;;;;;14.00;13.00;;;;;12.40;100.00;98064.66;6197195;28;96449;-61
2024/01/05 10:38:13;;;;;;;;;17.60;15.60;;;;;11.82;100.00;98054.47;6211039;28;96425;-60
2024/01/05 10:41:38;;;;;;;;;17.60;16.00;;;;;11.59;100.00;98064.38;6215473;28;96408;-60
2024/01/05 10:45:01;;;;;;;;;16.50;15.00;;;;;10.95;100.00;98070.38;6214346;28;96458;-60
2024/01/05 10:48:26;;;;;;;;;14.60;13.60;;;;;10.31;100.00;98065.16;6215676;28;96443;-60
2024/01/05 10:51:49;;;;;;;;;17.00;16.00;;;;;10.63;100.00;98057.44;6221876;28;96406;-64
2024/01/05 10:55:12;;;;;;;;;14.40;13.40;;;;;10.93;100.00;98057.16;6224431;28;96415;-63
2024/01/05 10:58:37;;;;;;;;;15.00;14.00;;;;;11.23;100.00;98033.38;6248611;28;96276;-64
2024/01/05 11:02:02;;;;;;;;;16.40;15.60;;;;;11.72;100.00;98036.22;6253890;27;96535;-64
2024/01/05 11:05:28;;;;;;;;;17.60;16.00;;;;;12.18;100.00;98015.19;6258048;27;96901;-64
2024/01/05 11:09:05;;;;;;;;;16.00;14.50;;;;;12.46;100.00;98009.59;6240662;28;96168;-65
2024/01/05 11:12:45;;;;;;;;;18.00;16.50;;;;;12.48;100.00;98024.47;6246275;28;96224;-65
2024/01/05 11:16:29;;;;;;;;;15.40;13.60;;;;;12.71;100.00;98025.22;6245897;28;96203;-64
2024/01/05 11:20:06;;;;;;;;;15.40;15.00;;;;;13.02;100.00;98017.13;6233498;27;96293;-65
2024/01/05 11:23:33;;;;;;;;;15.00;13.60;;;;;13.51;100.00;98024.25;6231669;28;96518;-62
2024/01/05 11:26:56;;;;;;;;;15.00;14.25;;;;;13.54;100.00;98011.00;6245763;28;96347;-65
2024/01/05 11:30:41;;;;;;;;;15.80;14.00;;;;;13.25;100.00;98009.72;6225678;28;97739;-65
2024/01/05 11:34:06;;;;;;;;;16.50;15.50;;;;;13.21;100.00;98004.03;6234553;28;96426;-65
2024/01/05 11:37:30;;;;;;;;;18.00;16.00;;;;;13.20;100.00;98001.56;6243411;27;96248;-63
2024/01/05 11:40:53;;;;;;;;;20.40;17.00;;;;;13.81;100.00;98003.59;6241983;28;98336;-65
2024/01/05 11:44:35;;;;;;;;;17.00;15.00;;;;;15.71;100.00;98002.47;6239730;27;96184;-65
2024/01/05 11:47:58;;;;;;;;;14.20;13.60;;;;;18.71;100.00;97990.63;6235290;27;98659;-63
2024/01/05 11:51:22;;;;;;;;;14.00;13.00;;;;;21.15;100.00;97982.84;6248805;27;96236;-61
2024/01/05 11:54:45;;;;;;;;;15.00;14.00;;;;;22.67;97.72;97995.09;6242157;28;96406;-62
2024/01/05 11:58:10;;;;;;;;;17.25;15.25;;;;;23.58;86.28;98001.19;6266238;27;96512;-63
2024/01/05 12:01:33;;;;;;;;;16.00;15.00;;;;;24.49;85.34;98002.59;6233785;28;96222;-61
2024/01/05 12:04:56;;;;;;;;;15.00;14.00;;;;;25.35;81.87;98010.22;6219424;27;96234;-61
2024/01/05 12:08:21;;;;;;;;;15.00;14.80;;;;;25.96;72.99;98002.09;6224750;28;96378;-62
2024/01/05 12:11:45;;;;;;;;;13.00;12.75;;;;;26.44;75.10;97998.59;6225523;27;96339;-61
2024/01/05 12:15:09;;;;;;;;;14.20;13.00;;;;;26.61;75.49;97985.31;6222435;28;96296;-61
2024/01/05 12:18:33;;;;;;;;;14.00;13.00;;;;;26.66;72.83;97987.84;6217908;27;96209;-60
2024/01/05 12:22:02;;;;;;;;;14.00;13.20;;;;;26.28;74.29;97984.69;6249732;27;96349;-62
2024/01/05 12:25:27;;;;;;;;;14.75;14.75;;;;;25.82;75.08;97980.34;6243430;27;96301;-61
2024/01/05 12:28:52;;;;;;;;;17.00;16.00;;;;;26.36;75.34;97980.16;6236041;28;96870;-61
2024/01/05 12:32:15;;;;;;;;;17.00;15.00;;;;;26.44;72.32;97968.97;6244530;27;96607;-60
2024/01/05 12:35:38;;;;;;;;;14.00;13.00;;;;;25.87;71.58;97958.84;6226240;27;96429;-61
2024/01/05 12:39:10;;;;;;;;;13.60;13.00;;;;;25.40;75.30;97958.41;6224166;28;96814;-62
2024/01/05 12:42:37;;;;;;;;;15.00;14.00;;;;;24.41;78.92;97962.13;6218930;28;96475;-62
2024/01/05 12:46:00;;;;;;;;;15.40;14.60;;;;;22.82;84.00;97961.66;6223865;28;96461;-61
2024/01/05 12:49:25;;;;;;;;;16.75;15.00;;;;;21.44;89.61;97960.44;6223881;28;96406;-61
2024/01/05 12:52:49;;;;;;;;;15.20;14.20;;;;;20.49;95.43;97967.09;6187642;28;96696;-61
2024/01/05 12:56:14;;;;;;;;;15.75;14.50;;;;;19.57;100.00;97967.34;6225422;27;98411;-60
2024/01/05 12:59:38;;;;;;;;;16.25;15.75;;;;;18.53;100.00;97970.38;6226451;28;98410;-62
2024/01/05 13:03:02;;;;;;;;;16.00;14.00;;;;;17.57;100.00;97957.94;6226527;27;96599;-62
2024/01/05 13:06:26;;;;;;;;;15.25;14.50;;;;;16.79;100.00;97955.41;6217329;28;96296;-62
2024/01/05 13:09:50;;;;;;;;;16.00;15.60;;;;;16.29;100.00;97956.53;6211312;28;96280;-64
2024/01/05 13:13:13;;;;;;;;;17.00;16.00;;;;;15.92;100.00;97954.28;6227825;28;96342;-64
2024/01/05 13:16:37;;;;;;;;;19.00;16.20;;;;;15.44;100.00;97950.34;6215925;28;96808;-64
2024/01/05 13:20:00;;;;;;;;;16.00;16.00;;;;;15.16;100.00;97940.91;6226372;28;96335;-64
2024/01/05 13:23:24;;;;;;;;;18.00;16.00;;;;;14.65;100.00;97932.00;6223928;27;98490;-63
2024/01/05 13:26:47;;;;;;;;;19.25;16.25;;;;;14.17;100.00;97933.25;6221304;27;96300;-64
2024/01/05 13:30:13;;;;;;;;;19.00;18.00;;;;;13.81;100.00;97932.34;6231938;28;96641;-63
2024/01/05 13:33:38;;;;;;;;;15.25;14.00;;;;;13.49;100.00;97924.31;6225157;28;96437;-65
2024/01/05 13:37:01;;;;;;;;;18.00;17.00;;;;;13.18;100.00;97931.50;6231117;27;96296;-63
2024/01/05 13:40:24;;;;;;;;;14.00;13.60;;;;;12.89;100.00;97922.88;6250159;27;97013;-65
2024/01/05 13:43:47;;;;;;;;;19.60;18.00;;;;;12.56;100.00;97932.06;6243754;27;96505;-65
2024/01/05 13:47:11;;;;;;;;;14.60;14.00;;;;;12.40;100.00;97933.03;6238560;27;96689;-66
2024/01/05 13:50:35;;;;;;;;;14.50;13.50;;;;;12.24;100.00;97922.31;6215458;28;96863;-64
2024/01/05 13:53:58;;;;;;;;;17.60;14.60;;;;;12.05;100.00;97925.38;6242032;27;96442;-65
2024/01/05 13:57:22;;;;;;;;;17.00;15.00;;;;;11.85;100.00;97903.56;6229105;28;96213;-64
2024/01/05 14:00:49;;;;;;;;;19.00;17.00;;;;;11.70;100.00;97920.38;6229324;28;96453;-66
2024/01/05 14:04:12;;;;;;;;;16.80;14.80;;;;;11.46;100.00;97919.00;6234971;27;96215;-66
2024/01/05 14:07:36;;;;;;;;;17.00;16.00;;;;;11.19;100.00;97910.00;6227997;28;96231;-64
2024/01/05 14:11:00;;;;;;;;;20.00;18.00;;;;;10.55;100.00;97909.59;6227071;27;96727;-61
2024/01/05 14:14:23;;;;;;;;;17.20;14.80;;;;;10.44;100.00;97907.78;6228300;28;96241;-64
2024/01/05 14:17:46;;;;;;;;;17.20;16.00;;;;;10.14;100.00;97918.84;6227693;28;96318;-64
2024/01/05 14:21:09;;;;;;;;;14.60;14.00;;;;;10.07;100.00;97917.38;6211109;28;96446;-62
2024/01/05 14:24:34;;;;;;;;;17.00;15.00;;;;;9.92;100.00;97915.22;6222454;28;96405;-62
2024/01/05 14:27:57;;;;;;;;;18.00;17.00;;;;;9.64;100.00;97912.47;6235687;28;96357;-63
2024/01/05 14:31:27;;;;;;;;;17.50;17.00;;;;;9.47;100.00;97897.13;6208445;28;96392;-62
2024/01/05 14:34:50;;;;;;;;;17.60;15.60;;;;;9.53;100.00;97892.63;6221155;28;96397;-62
2024/01/05 14:38:13;;;;;;;;;23.25;20.00;;;;;9.28;100.00;97910.97;6241476;27;96365;-63
2024/01/05 14:41:38;;;;;;;;;18.00;16.00;;;;;9.16;100.00;97919.03;6221295;28;97199;-62